Redondo, Valles Caldera, New Mexico Weather observations

Data are for 10 minute period ending at time listed.
 Day   Time   Solar   Ave.   Ave.  Ave.  Vector  Max.   Baro.   Total    
  of    of     Rad.   Air    Rel.  Wind   Wind   Wind  Press.  Precip.   
Year   Day            Temp.  Hum.  Speed  Dir.   Gust                    
2016   (MST)  Kw/m2    F      %     mph   deg.    mph    mb.     in.     
-------------------------------------------------------------------------
 148   16:30   0.49   49.6    27    7.5   296    14.9   685.6    0.01 
 148   16:40   0.35   48.1    29    6.4   304    16.7   685.6    0.00 
 148   16:50   0.58   50.8    26    8.2   298    16.1   685.6    0.00 
 148   17:00   0.49   50.5    25    6.9   301    13.7   685.6    0.00 
 148   17:10   0.31   50.7    26    6.2   312    14.9   685.6    0.00 
 148   17:20   0.19   47.3    28    6.1   312    15.5   685.6    0.00 
 148   17:30   0.35   47.8    29    8.3   302    22.1   685.7    0.00 
 148   17:40   0.20   46.1    32    5.7   308    15.5   685.8    0.00 
 148   17:50   0.07   45.4    32    5.2   313    10.8   685.9    0.00 
 148   18:00   0.09   44.0    34    4.5   310    11.3   686.1    0.00 
 148   18:10   0.05   43.4    35    4.8   309    10.8   686.2    0.00 
 148   18:20   0.05   43.2    36    4.3   309     9.0   686.3    0.00 
 148   18:30   0.09   43.5    36    4.5   303    10.2   686.4    0.00 
 148   18:40   0.10   43.8    35    5.2   309    12.5   686.6    0.00 
 148   18:50   0.05   44.4    34    4.7   322    10.2   686.7    0.00 
 148   19:00   0.03   42.8    37    4.0   308    10.2   686.8    0.00 
 148   19:10   0.01   41.6    38    4.1   312     9.6   686.9    0.00 
 148   19:20   0.00   41.0    37    5.2   303    13.1   686.9    0.00 
 148   19:30   0.00   40.8    36    4.7   304    10.8   687.0    0.00 
 148   19:40   0.00   40.4    36    5.2   305    10.2   687.0    0.00 
 148   19:50   0.00   40.3    35    4.5   308    10.2   687.1    0.00 
 148   20:00   0.00   38.8    48    2.7   319     9.0   687.4    0.00 
 148   20:10   0.00   36.6    57    2.1   302     7.2   687.5    0.00 
 148   20:20   0.00   35.6    61    0.7   285     3.0   687.7    0.00 
 148   20:30   0.00   34.8    63    2.7   291     6.6   687.7    0.00 
 148   20:40   0.00   35.0    63    2.4   297     6.6   687.8    0.00 
 148   20:50   0.00   35.1    61    3.0   311     6.0   687.9    0.00 
 148   21:00   0.00   35.7    58    2.1   303     7.2   688.0    0.00 
 148   21:10   0.00   35.2    60    1.7   301     4.8   688.0    0.00 
 148   21:20   0.00   34.9    61    1.6   302     4.8   688.2    0.00 
 148   21:30   0.00   34.5    63    1.4   305     4.2   688.2    0.00 
 148   21:40   0.00   34.2    64    1.0   287     3.6   688.3    0.00 
 148   21:50   0.00   34.8    60    1.5   280     4.8   688.3    0.00 
 148   22:00   0.00   34.9    58    1.1   296     4.2   688.3    0.00 
 148   22:10   0.00   35.5    55    1.6   295     4.2   688.3    0.00 
 148   22:20   0.00   35.6    55    1.8   301     4.8   688.4    0.00 
 148   22:30   0.00   35.3    56    1.0   290     3.6   688.4    0.00 
 148   22:40   0.00   35.1    56    0.8   283     4.2   688.5    0.00 
 148   22:50   0.00   35.2    56    1.0   284     4.8   688.5    0.00 
 148   23:00   0.00   35.2    56    1.4   296     4.8   688.4    0.00 
 148   23:10   0.00   35.5    54    2.3   300     6.0   688.3    0.00 
 148   23:20   0.00   35.7    54    3.2   308     7.2   688.3    0.00 
 148   23:30   0.00   35.7    54    2.6   308     6.6   688.3    0.00 
 148   23:40   0.00   35.5    54    2.6   307     6.6   688.3    0.00 
 148   23:50   0.00   35.5    53    2.9   301     8.4   688.1    0.00 
 149    0:00   0.00   35.5    53    2.4   303     4.8   688.1    0.00 
 149    0:10   0.00   35.5    51    3.1   308     7.8   688.1    0.00 
 149    0:20   0.00   36.2    46    3.1   303     7.2   688.1    0.00 
 149    0:30   0.00   36.3    45    3.0   306     6.6   688.1    0.00 
 149    0:40   0.00   36.6    43    3.9   306     9.6   688.2    0.00 
 149    0:50   0.00   36.2    43    2.3   310     5.4   688.2    0.00 
 149    1:00   0.00   35.9    44    2.4   304     6.0   688.2    0.00 
 149    1:10   0.00   36.3    42    3.2   303     7.8   688.3    0.00 
 149    1:20   0.00   36.4    42    2.8   310     6.0   688.3    0.00 
 149    1:30   0.00   36.6    41    3.2   311     8.4   688.3    0.00 
 149    1:40   0.00   37.0    42    3.6   304     6.6   688.4    0.00 
 149    1:50   0.00   36.9    44    2.7   311     7.8   688.5    0.00 
 149    2:00   0.00   36.1    48    2.2   319     5.4   688.4    0.00 
 149    2:10   0.00   35.8    51    2.4   313     5.4   688.4    0.00 
 149    2:20   0.00   35.8    52    2.7   312     6.0   688.5    0.00 
 149    2:30   0.00   35.8    53    2.6   315     5.4   688.5    0.00 
 149    2:40   0.00   35.4    54    2.3   315     6.0   688.5    0.00 
 149    2:50   0.00   35.3    55    2.8   313     6.0   688.6    0.00 
 149    3:00   0.00   35.2    55    2.4   314     4.8   688.6    0.00 
 149    3:10   0.00   34.8    54    2.4   320     5.4   688.7    0.00 
 149    3:20   0.00   35.1    51    1.9   312     5.4   688.8    0.00 
 149    3:30   0.00   35.2    49    1.7   314     4.8   688.8    0.00 
 149    3:40   0.00   35.1    49    1.9   316     4.2   688.8    0.00 
 149    3:50   0.00   35.1    49    1.9   314     4.2   688.9    0.00 
 149    4:00   0.00   35.1    49    2.5   316     4.8   688.9    0.00 
 149    4:10   0.00   35.6    48    2.9   306     7.2   688.9    0.00 
 149    4:20   0.00   35.6    49    2.0   321     6.6   689.0    0.00 
 149    4:30   0.00   35.2    51    1.7   303     5.4   689.1    0.00 
 149    4:40   0.00   35.4    51    3.0   309     7.2   689.1    0.00 
 149    4:50   0.00   35.7    50    3.1   309     6.6   689.1    0.00 
 149    5:00   0.01   35.4    52    2.9   311     5.4   689.1    0.00 
 149    5:10   0.01   35.3    52    2.6   315     6.6   689.2    0.00 
 149    5:20   0.01   35.3    51    2.6   318     6.0   689.3    0.00 
 149    5:30   0.02   35.5    50    2.2   318     6.0   689.4    0.00 
 149    5:40   0.02   35.7    48    2.5   312     5.4   689.5    0.00 
 149    5:50   0.02   36.0    46    2.1   321     6.0   689.6    0.00 
 149    6:00   0.03   36.3    45    2.3   313     5.4   689.7    0.00 
 149    6:10   0.09   37.6    43    2.5   316     5.4   689.7    0.00 
 149    6:20   0.21   40.4    40    2.5   314     4.8   689.9    0.00 
 149    6:30   0.26   42.9    35    3.0   310     5.4   690.0    0.00 
 149    6:40   0.30   44.1    34    3.4   306     6.0   690.0    0.00 
 149    6:50   0.31   44.4    34    3.5   301     7.2   690.1    0.00 
 149    7:00   0.34   44.6    34    4.2   299     7.8   690.1    0.00 
 149    7:10   0.40   44.7    35    3.7   297     7.2   690.2    0.00 
 149    7:20   0.44   45.6    34    3.6   295     7.2   690.2    0.00 
 149    7:30   0.47   45.6    34    4.1   286     7.2   690.3    0.00 
 149    7:40   0.51   46.3    34    3.9   289     7.8   690.4    0.00 
 149    7:50   0.54   46.1    35    4.6   286     9.6   690.5    0.00 
 149    8:00   0.58   46.7    34    4.4   294     9.0   690.6    0.00 
 149    8:10   0.62   47.0    34    3.2   308     7.2   690.7    0.00 
 149    8:20   0.39   46.3    35    3.7   287     8.4   690.8    0.00 
 149    8:30   0.69   45.7    36    4.4   270     9.0   690.8    0.00 
 149    8:40   0.71   48.3    34    3.5   268     8.4   690.7    0.00 
 149    8:50   0.76   47.7    34    4.7   274     9.6   690.7    0.00 
 149    9:00   0.82   48.8    33    4.9   278     9.6   690.7    0.00 
 149    9:10   0.85   48.3    34    5.4   242    13.7   690.8    0.00 
 149    9:20   0.76   47.9    33    4.6   275     9.6   690.7    0.00 
 149    9:30   0.96   48.7    32    5.4   233    10.2   690.7    0.00 
 149    9:40   0.47   48.2    32    3.6   301     9.6   690.8    0.00 
 149    9:50   0.38   47.2    34    3.6   310     8.4   690.9    0.00 
 149   10:00   0.47   48.9    33    3.7   246     9.6   690.9    0.00 
 149   10:10   0.22   45.3    37    4.1   262     9.0   691.1    0.00 
 149   10:20   0.79   46.1    38    3.7   275     6.0   691.1    0.00 
 149   10:30   1.20   50.6    33    4.1   287    10.2   691.1    0.00 
 149   10:40   0.55   50.0    31    3.0   250    13.1   691.1    0.00 
 149   10:50   0.80   47.6    36    4.5   252    10.2   691.1    0.00 
 149   11:00   1.06   50.1    34    4.5   234     9.6   691.0    0.00 
 149   11:10   1.16   50.8    30    3.9   173     9.6   691.0    0.00 
 149   11:20   0.93   50.8    31    3.7   230    11.3   691.0    0.00 
 149   11:30   0.60   48.9    33    4.9   233    10.8   691.0    0.00 
 149   11:40   1.19   51.0    31    5.0   260    10.2   691.0    0.00 
 149   11:50   1.05   51.5    28    5.0   216    10.2   691.0    0.00 
 149   12:00   0.66   50.8    28    4.1   255    11.3   690.9    0.00 
 149   12:10   0.67   50.7    30    4.5   289    10.8   690.9    0.00 
 149   12:20   0.41   49.3    31    5.0   244    10.2   690.9    0.00 
 149   12:30   1.19   50.7    32    4.9   279    11.9   690.9    0.00 
 149   12:40   1.17   52.7    28    4.6   287    13.7   690.9    0.00 
 149   12:50   1.24   54.5    27    4.2   218    12.5   690.9    0.00 
 149   13:00   1.19   53.9    26    5.0   211     9.6   690.9    0.00 
 149   13:10   1.19   54.0    26    4.7   246    10.8   690.9    0.00 
 149   13:20   0.97   53.2    25    5.5   202    15.5   690.9    0.00 
 149   13:30   0.34   51.0    25    4.4   251    10.2   691.0    0.00 
 149   13:40   0.71   51.3    26    3.4   231     9.6   691.0    0.00 
 149   13:50   0.39   51.5    24    4.7   265    14.9   691.1    0.00 
 149   14:00   0.68   52.0    24    3.9   247     8.4   691.1    0.00 
 149   14:10   0.45   51.8    24    3.2   243     9.6   691.0    0.00 
 149   14:20   0.38   52.6    25    4.1   237    10.2   691.0    0.00 
 149   14:30   0.63   51.7    25    4.2   181    10.8   691.0    0.00 
 149   14:40   0.42   53.2    26    4.8   195    11.9   691.0    0.00 
 149   14:50   0.24   50.5    28    4.8   208    11.9   691.1    0.00 
 149   15:00   0.21   50.2    29    4.0   285    11.3   691.1    0.00 
 149   15:10   0.39   50.9    27    2.4   320     4.2   691.1    0.00 
 149   15:20   0.48   52.4    27    3.4   279     7.8   691.1    0.00 
 149   15:30   0.84   55.4    25    4.4   222     9.0   691.1    0.00 
 149   15:40   0.79   55.5    25    5.9   272    12.5   691.0    0.00 
 149   15:50   0.42   54.1    25    4.8   241    10.8   691.1    0.00 
 149   16:00   0.24   51.8    27    3.2   258     7.8   691.0    0.00 
 149   16:10   0.28   51.4    28    3.2   231     9.0   691.1    0.00 
 149   16:20   0.64   53.0    28    3.5   232     9.6   691.2    0.00 

Return to Redondo, Valles Caldera graphs page.


Western Regional Climate Center,wrcc@dri.edu